Stoney Creek, North Carolina
Current Conditions -  °F | °C
As of 5:54 PM on Tuesday 21 Oct 2014 (Local Time) from KBUY Reporting Station
Overcast Overcast  
Wind Chill: 68°   Ceiling: 8500
Heat Index: 68°   Visibility: 10mi
Dew Point: 43°   Wind: 9mph
Humidity: 40%   Direction: 290°WNW
Pressure: 29.86"   Gusts: NA
Location:  36.036°N, 79.6016°W
Report Text: KBUY 212154Z AUTO 29008KT 10SM OVC085 20/06 A2986 RMK AO2 SLP107 T02000061
Loading
Personal Weather Stations






























Interactive Weather Map
Tropical Storm Tracking
New forecast layout! Learn more

10-Day Weather Forecast

Advertisements
Track Severe Weather on mobile